Arthur Monteiro

Scout - Flamengo
17 Feb 2028
Thursday
Process

Personality

Adaptability (9) Ambition (1) Controversy (16) Loyalty (4) Pressure (13) Professionalism (19) Sportsmanship (20) Temperament (10)

Profile

Coaching Style Democratic
License Continental C
Determination 13
Man Management 14
Motivating 10
Discipline 8
Job Satisfaction
100%
Fatigue
0%
Role Scout
Wage 103.7K p/w
Contract 14.03.2028

Performance

Behaviour Good
Training Effectiveness
60%
Player Development
35%
Injury Prevention
55%
Tactical Implementation
80%

Recent Events

Contract negotiation started now
Attended a recruitment meeting now
Recommended a transfer target now
Contract negotiation started now
Contract negotiation started 7d ago
Contract negotiation started 7d ago
Assessed a player 7d ago
Contract negotiation started 7d ago

Currently Monitoring

232
Player Club Status Ability Confidence Watched Last Observed Latest Vote
Josep Martínez Inter Active 148 / 144 40% 2 16.02.2028 -
Daniel Peretz Bayern Munich Active 149 / 149 40% 1 16.02.2028 -
Stanislav Agkatsev Sunderland Active 150 / 148 40% 1 16.02.2028 -
Robin Roefs Sunderland Active 146 / 148 40% 2 12.02.2028 -
Facundo Insfrán Al Ain Active 119 / 132 40% 1 12.02.2028 -
Bart Verbruggen Tottenham Active 160 / 164 40% 1 12.02.2028 -
Christos Mandas Lazio Active 145 / 145 40% 1 10.02.2028 -
Illan Meslier Middlesbrough Active 136 / 139 40% 1 10.02.2028 -
Sebastiano Desplanches Palermo Active 144 / 136 40% 1 10.02.2028 -
Zion Suzuki Burnley Active 151 / 148 40% 1 09.02.2028 -
Aaron Ramsdale Southampton Active 154 / 158 40% 1 09.02.2028 -
Mateusz Kochalski Dynamo Kyiv Active 142 / 142 40% 1 09.02.2028 -
Diogo Costa Manchester City Active 172 / 174 40% 2 08.02.2028 -
Mads Hermansen West Ham United Active 144 / 150 40% 1 08.02.2028 -
Bento Al-Nassr Active 144 / 141 40% 1 08.02.2028 -
Victor Sá São Paulo Lost 124 / 122 86% 1 13.12.2027 -
Eduardo Sasha Bragantino Lost 127 / 127 86% 1 04.12.2027 -
Bruninho Bragantino Active 133 / 136 42% 1 / 1m 25.08.2027 -
Ruan Tressoldi Atlético Mineiro Active 118 / 124 83% 1 19.07.2027 Approve
Diego Hernández Sport Recife Active 122 / 122 30% 1 / 1m 07.07.2027 -
Federico Chiesa Liverpool Active 159 / 151 40% 5 30.05.2027 -
Bradley Barcola Liverpool Active 158 / 161 40% 5 30.05.2027 -
Jérémy Doku Manchester City Active 173 / 161 40% 3 28.05.2027 -
Moisés Caicedo Chelsea Active 165 / 164 40% 5 28.05.2027 -
Gabriel Martinelli Brighton Active 165 / 165 40% 2 28.05.2027 -
Georginio Rutter Brighton Active 151 / 149 40% 3 27.05.2027 -
Kai Havertz Arsenal Active 162 / 158 40% 3 27.05.2027 -
Harry Clarke Preston Active 126 / 126 40% 2 27.05.2027 -
Vinícius Júnior Arsenal Active 180 / 171 40% 4 26.05.2027 -
Xavi Simons Tottenham Active 162 / 157 40% 2 26.05.2027 -
Derensili Sanches Fernandes Huddersfield Town Active 130 / 128 40% 2 25.05.2027 -
Cole Palmer Chelsea Active 174 / 169 40% 2 25.05.2027 Needs More Info
Harry Wilson Leeds United Active 149 / 145 40% 2 24.05.2027 -
Phil Foden Manchester City Active 176 / 170 40% 4 24.05.2027 -
Carlos Vicente Birmingham Active 145 / 143 40% 4 23.05.2027 -
Kerem Aktürkoğlu Fenerbahce Active 141 / 146 40% 2 23.05.2027 -
Callum Doyle Wrexham Active 131 / 132 40% 2 23.05.2027 -
Tyler Adams Bournemouth Active 153 / 155 40% 2 22.05.2027 -
Reece James Chelsea Active 175 / 170 40% 1 22.05.2027 -
Nuno Tavares Lazio Active 150 / 147 40% 1 21.05.2027 -
Nico González Newcastle United Active 156 / 159 40% 1 21.05.2027 -
Dango Ouattara Brentford Active 145 / 140 40% 2 20.05.2027 -
Ronald Swansea City Active 128 / 127 40% 1 20.05.2027 -
Matheus Araújo Oeste Active 89 / 89 30% 1 / 1m 19.05.2027 -
Wellerson Sampaio Correa Active 101 / 101 30% 1 / 1m 19.05.2027 -
Matthijs de Ligt Manchester United Active 156 / 166 40% 2 17.05.2027 -
Curtis Jones Inter Active 164 / 156 40% 4 17.05.2027 -
Alexander Isak Liverpool Active 172 / 172 40% 2 17.05.2027 -
Isaiah Jones Luton Town Active 128 / 129 40% 1 17.05.2027 -
Jan Paul van Hecke Tottenham Active 160 / 154 40% 1 16.05.2027 -
William Saliba Arsenal Active 175 / 177 40% 1 16.05.2027 -
Sven Botman Newcastle United Active 160 / 154 40% 1 16.05.2027 -
Mats Wieffer Brighton Active 143 / 148 40% 4 14.05.2027 -
Cody Gakpo Liverpool Active 156 / 158 40% 1 14.05.2027 -
Alessandro Buongiorno Sassuolo Active 153 / 157 40% 1 14.05.2027 -
Jacob Ramsey Newcastle United Active 154 / 151 40% 2 11.05.2027 -
Mohammed Kudus Tottenham Active 163 / 155 40% 3 11.05.2027 -
Kiernan Dewsbury-Hall Everton Active 148 / 147 40% 2 11.05.2027 -
Tom Fellows Southampton Active 134 / 131 40% 3 09.05.2027 -
Florian Wirtz Liverpool Active 173 / 178 40% 2 09.05.2027 -
Rayan Cherki Manchester City Active 161 / 159 40% 1 09.05.2027 -
Noussair Mazraoui Manchester United Active 152 / 149 40% 3 08.05.2027 -
Francisco Conceição Juventus Active 158 / 157 40% 1 07.05.2027 -
Kasey McAteer Ipswich Town Active 126 / 127 40% 1 06.05.2027 -
Carlos Alcaraz Everton Active 144 / 150 40% 4 03.05.2027 -
Nicolas Jackson Aston Villa Active 154 / 152 40% 1 02.05.2027 -
Antoine Semenyo Manchester City Active 165 / 152 40% 1 01.05.2027 -
Martin Ødegaard Arsenal Active 184 / 178 40% 1 01.05.2027 -
João Pedro Chelsea Active 157 / 160 40% 3 30.04.2027 Monitor
Giacomo Raspadori Atalanta Active 153 / 146 40% 7 30.04.2027 -
Ryan Sessegnon Fulham Active 146 / 144 40% 1 29.04.2027 -
Sandro Tonali Tottenham Active 173 / 175 40% 1 27.04.2027 -
Kevin Fulham Active 147 / 147 40% 1 27.04.2027 -
Matt O'Riley Brighton Active 144 / 148 40% 1 26.04.2027 -
Callum Hudson-Odoi Nottingham Forest Active 147 / 151 40% 1 26.04.2027 -
William Gomes Porto Active 148 / 140 40% 6 24.04.2027 -
Williams Manyama SuperSport United Active 119 / 114 40% 1 23.04.2027 -
Jake O'Brien Everton Active 147 / 153 40% 1 23.04.2027 -
Morgan Rogers Chelsea Active 164 / 163 40% 1 21.04.2027 -
Alejandro Zendejas Club America Active 143 / 136 40% 5 20.04.2027 -
Iván Fresneda Sporting CP Active 139 / 139 40% 3 18.04.2027 -
Francisco Moura Lusitânia Lourosa Active 140 / 143 40% 4 18.04.2027 -
Mason Mount Manchester United Active 151 / 151 40% 1 18.04.2027 -
Sergi Altimira Sporting CP Active 137 / 143 40% 1 18.04.2027 -
Quinten Timber Crystal Palace Active 155 / 147 40% 1 18.04.2027 -
Dodi Lukébakio Benfica Active 149 / 143 40% 5 16.04.2027 -
Telmo Arcanjo Vitoria Guimaraes Active 129 / 117 40% 2 15.04.2027 -
Ole Pohlmann Rio Ave Active 123 / 125 40% 2 15.04.2027 -
Makan Aïko Tondela Active 119 / 113 40% 2 14.04.2027 -
Finn Azaz Southampton Active 129 / 131 40% 1 14.04.2027 -
Adrien Truffert Bournemouth Active 156 / 155 40% 1 13.04.2027 -
João Mendes Vitoria Guimaraes Active 122 / 122 40% 1 12.04.2027 -
Rodrigo Pinheiro Famalicao Active 125 / 132 40% 1 12.04.2027 -
Welington Southampton Active 127 / 131 40% 1 12.04.2027 -
Mario Dorgeles Braga Active 132 / 133 40% 1 12.04.2027 -
Pau Víctor AVS Active 138 / 129 40% 8 11.04.2027 -
Geny Sporting CP Active 145 / 144 40% 5 11.04.2027 -
Naïs Djouahra Arouca Active 126 / 115 40% 2 11.04.2027 -
Joe Gelhardt Hull City Active 130 / 140 40% 1 06.04.2027 -
Gustavo Silva Vitoria Guimaraes Active 124 / 126 40% 3 05.04.2027 -
Nordi Mukiele Sunderland Active 148 / 141 40% 3 03.04.2027 -
Xaver Schlager Nottingham Forest Active 145 / 142 40% 4 03.04.2027 -
Anton Stach Leeds United Lost 151 / 146 40% 3 02.04.2027 -
Osame Sahraoui LOSC Lille Active 147 / 139 40% 4 31.03.2027 -
Hwang In-Beom Porto Active 147 / 138 40% 4 31.03.2027 -
Che Adams Torino Active 140 / 135 40% 1 31.03.2027 -
Joaquín Panichelli Le Havre AC Active 149 / 139 40% 3 30.03.2027 -
Alfonso Trezza Arouca Active 124 / 126 40% 2 29.03.2027 -
Morgan Whittaker Middlesbrough Active 137 / 131 40% 4 29.03.2027 -
Santi García Gil Vicente Active 131 / 137 40% 3 29.03.2027 -
Víctor Gómez Braga Active 134 / 143 40% 3 28.03.2027 -
Malick Fofana Sunderland Active 137 / 141 40% 2 28.03.2027 -
Heorhii Sudakov Benfica Active 142 / 146 40% 4 26.03.2027 -
Tino Livramento Newcastle United Active 161 / 151 40% 1 25.03.2027 -
Sofiane Diop OGC Nice Active 141 / 145 40% 1 25.03.2027 -
Aaron Hickey Brentford Active 144 / 152 40% 2 24.03.2027 -
Alberto Costa Porto Active 149 / 153 40% 9 24.03.2027 -
Iker Benito Queretaro Active 126 / 123 40% 2 24.03.2027 -
Ozziel Herrera Tigres Active 132 / 131 40% 3 23.03.2027 -
Ansu Fati Monaco Active 136 / 132 40% 1 22.03.2027 -
Figueiredo Alverca Active 131 / 123 40% 6 20.03.2027 -
Valery Académico de Viseu Active 122 / 120 40% 1 20.03.2027 -
Ritsu Doan Benfica Active 147 / 156 40% 3 18.03.2027 -
Jhon Arias Palmeiras Active 139 / 143 40% 2 18.03.2027 -
José Manuel López Palmeiras Active 136 / 135 40% 5 17.03.2027 -
Erick Sánchez OGC Nice Active 148 / 140 40% 7 17.03.2027 -
Leandro Antonetti Estrela da Amadora Active 102 / 105 40% 1 17.03.2027 -
Yankuba Minteh Brighton Active 154 / 159 40% 1 17.03.2027 -
Barış Alper Yılmaz Galatasaray Active 145 / 151 40% 4 16.03.2027 -
Félix Lemaréchal Club Brugge Active 143 / 144 40% 3 12.03.2027 -
Roberto Fernández Braga Active 144 / 139 40% 3 11.03.2027 -
Amine Adli Bournemouth Active 139 / 149 40% 2 08.03.2027 -
Gianluca Prestianni Benfica Active 138 / 141 40% 2 04.03.2027 -
Orbelín Pineda Monterrey Active 143 / 137 40% 2 03.03.2027 -
Dylan Nandín Arouca Active 117 / 112 40% 1 01.03.2027 -
Nicolò Tresoldi Club Brugge Active 132 / 140 40% 1 01.03.2027 -
Florentino Luís Ipswich Town Active 137 / 133 40% 1 26.02.2027 -
Adriano Bertaccini Anderlecht Active 127 / 127 40% 1 23.02.2027 -
Jalen Blesa Rio Ave Active 115 / 125 40% 1 21.02.2027 -
Adnan Courtois KV Oostende Active 139 / 134 40% 3 19.02.2027 -
Vinícius Lopes Santa Clara Active 117 / 116 40% 1 19.02.2027 -
Will Lankshear Middlesbrough Active 124 / 135 40% 1 19.02.2027 -
Jan Virgili Club Brugge Active 134 / 126 40% 1 19.02.2027 -
Gabri Martínez Braga Active 136 / 127 40% 2 17.02.2027 -
Juanlu Bournemouth Active 144 / 140 40% 1 15.02.2027 -
Beni Mukendi Vitoria Guimaraes Active 130 / 123 40% 1 15.02.2027 -
Victor Froholdt Porto Active 144 / 163 40% 4 13.02.2027 -
Taichi Fukui Arouca Active 130 / 136 40% 1 11.02.2027 -
Brian Rodríguez Club America Active 128 / 124 40% 1 10.02.2027 -
Evidence Makgopa Orlando Pirates Active 112 / 119 40% 1 05.02.2027 -
Olívio Tomé Benfica Active 111 / 118 40% 1 03.02.2027 -
Luís Henrique Inter Active 139 / 147 40% 1 03.02.2027 -
Gonzalo Fulham Active 142 / 149 40% 1 03.02.2027 -
Igor Burnley Active 142 / 139 40% 1 03.02.2027 -
Aune Heggebø West Bromwich Albion Active 126 / 132 40% 1 31.01.2027 -
Yousef Salech Cardiff City Active 131 / 116 40% 1 31.01.2027 -
Martín Tejón Maritimo Active 119 / 123 40% 2 25.01.2027 -
Miguel Falé Pacos de Ferreira Active 100 / 111 40% 2 25.01.2027 -
Luis Vázquez Birmingham Active 134 / 129 40% 1 25.01.2027 -
Gabriel Veron Porto Active 129 / 125 40% 3 19.01.2027 -
Themba Ngcobo SuperSport United Active 116 / 116 40% 1 08.01.2027 -
Manfred Ugalde Spartak Moscow Active 138 / 127 40% 1 04.01.2027 -
Dawda Camara Alverca Active 113 / 121 40% 1 23.12.2026 -
Ruben van Bommel Ferencvaros Active 139 / 141 40% 1 22.12.2026 -
Matheus Pereira Cruzeiro Active 138 / 144 40% 1 21.12.2026 -
Jean-Philippe Mateta Crystal Palace Active 151 / 159 40% 11 30.11.2026 -
João Neves Paris Saint-Germain Active 164 / 170 40% 1 29.11.2026 -
Rúben Neves Al-Hilal Active 144 / 150 40% 1 28.11.2026 -
Leo Castledine Middlesbrough Active 123 / 138 40% 1 27.11.2026 -
Vanderson Monaco Active 145 / 146 40% 1 21.11.2026 -
Omar Alderete Sunderland Active 154 / 148 40% 1 20.11.2026 -
Lewis Cook Bournemouth Active 144 / 147 40% 3 19.11.2026 -
Lisandro Martínez Manchester United Active 159 / 161 40% 4 17.11.2026 -
Dominic Solanke Tottenham Active 153 / 146 40% 4 17.11.2026 -
Tiago Santos LOSC Lille Active 141 / 138 40% 2 15.11.2026 -
Pau Torres Aston Villa Active 155 / 141 40% 3 09.11.2026 -
Randal Kolo Muani Juventus Active 146 / 150 40% 3 09.11.2026 -
Matvey Safonov Paris Saint-Germain Active 149 / 151 40% 4 07.11.2026 -
Senne Lammens Manchester United Active 141 / 146 40% 2 07.11.2026 -
Patrick Berg Bodo/Glimt Active 137 / 147 40% 2 03.11.2026 -
Tomás Araújo Benfica Active 147 / 136 40% 3 03.11.2026 -
Luis Suárez Chelsea Active 158 / 161 40% 4 01.11.2026 -
Fikayo Tomori AC Milan Active 145 / 154 40% 1 30.10.2026 -
Pedro Porro Tottenham Active 146 / 136 40% 1 27.10.2026 -
Cheick Doucouré Crystal Palace Active 146 / 144 40% 2 24.10.2026 -
Alan Varela Porto Active 138 / 138 40% 2 22.10.2026 -
Gonçalo Inácio Sporting CP Active 151 / 147 40% 2 21.10.2026 -
Dean Henderson Crystal Palace Active 147 / 139 40% 2 19.10.2026 -
Endrick Real Madrid Active 141 / 148 40% 1 17.10.2026 -
Malick Thiaw West Ham United Active 156 / 146 40% 2 13.10.2026 -
Elliot Anderson Manchester City Active 155 / 149 40% 1 13.10.2026 -
Erick Reyes Toluca Active 135 / 134 40% 1 08.10.2026 -
Conor Gallagher Tottenham Active 149 / 157 40% 2 02.10.2026 -
Ferdi Kadıoğlu Brighton Active 148 / 149 40% 1 02.10.2026 -
Mateo Mendoza Godoy Cruz Active 118 / 121 40% 1 01.10.2026 -
Jack Hinshelwood Brighton Active 141 / 143 40% 1 30.09.2026 -
Pierre Kalulu Juventus Active 157 / 161 40% 1 30.09.2026 -
Gabriel Gudmundsson Leeds United Active 145 / 151 40% 1 27.09.2026 -
Ian Maatsen Aston Villa Active 145 / 145 40% 1 27.09.2026 -
Malo Gusto Chelsea Active 146 / 156 40% 2 26.09.2026 -
Martim Fernandes Porto Active 133 / 138 40% 1 26.09.2026 -
Matty Cash Aston Villa Active 152 / 156 40% 1 21.09.2026 -
Guillaume Restes Toulouse FC Active 129 / 128 40% 1 20.09.2026 -
Yehvann Diouf OGC Nice Active 136 / 131 40% 1 20.09.2026 -
Edoardo Motta Lazio Active 113 / 135 40% 1 19.09.2026 -
Francesco Pio Esposito Inter Active 139 / 136 40% 2 16.09.2026 -
Benjamin White Arsenal Active 154 / 145 40% 2 14.09.2026 -
Marcus Rashford Manchester United Active 161 / 153 40% 6 13.09.2026 -
Antonee Robinson Fulham Active 157 / 141 40% 1 13.09.2026 -
Santiago Castro AS Roma Active 146 / 154 40% 1 10.09.2026 -
Assane Diao Lazio Active 137 / 138 40% 1 07.09.2026 -
Gonçalo Ramos AC Milan Active 157 / 157 40% 2 02.09.2026 -
Dušan Vlahović Juventus Active 159 / 160 40% 1 02.09.2026 -
Jarrod Bowen West Ham United Active 159 / 146 40% 2 25.08.2026 -
Luca Koleosho Paris FC Active 121 / 141 40% 1 20.08.2026 -
Jader Santa Clara Active 114 / 117 56% 2 / 2m 19.08.2026 -
Fabri Vitória Active 124 / 124 52% 1 / 1m 19.08.2026 -
Anderson Pato Vitória Active 100 / 103 42% 1 / 1m 19.08.2026 -
Ilyas Ansah Hull City Active 127 / 138 40% 1 18.08.2026 -
Ferran Torres Paris Saint-Germain Active 166 / 156 40% 1 18.08.2026 -
Mateus Mané Manchester United Active 130 / 147 40% 1 15.08.2026 -
Lima Atletico Goianiense Active 84 / 89 30% 1 / 1m 12.08.2026 -
André Luís Mirassol Active 123 / 123 30% 1 / 1m 12.08.2026 -
Georges Mikautadze Villarreal Active 151 / 156 40% 1 09.08.2026 -
Senny Mayulu Paris Saint-Germain Active 142 / 141 40% 1 06.08.2026 -
Donyell Malen AS Roma Active 141 / 148 40% 1 06.08.2026 -
Dani Vivian Athletic Bilbao Active 155 / 159 40% 1 06.08.2026 -
Marc Cucurella Real Madrid Active 155 / 140 40% 1 06.08.2026 -
Jaka Bijol Leeds United Active 149 / 143 40% 1 06.08.2026 -
Adam Wharton Crystal Palace Active 142 / 147 40% 1 03.08.2026 -
João Simões Sporting CP Active 131 / 138 40% 1 02.08.2026 -
Ismael Saibari Bayern Munich Active 148 / 143 40% 1 01.08.2026 -